首页
METAR-TAF:

METAR-TAF

机场 :

廊曼国际机场

曼谷, 泰国

纬度: 13-54-45N, 经度: 100-36-24E, 海拔: 4米

当前天气观测

该预报发布于41分钟前的00:00 UTC
风速3节,风向
温度 26°C
湿度 70%
气压 1013 hPa
能見度: 9000

METAR: VTBD 150000Z 09003KT 9000 NSC 26/20 Q1013 NOSIG

时间: 07:41 (00:41 UTC)

预报

该预报发布于1小时和41分钟前的23:00 UTC
预报有效从15日的 00点(UTC)到 16日的 06点(UTC)
风速8节,风向东转东北
能見度: 9000
少量云层高于2000英尺
散云层高于10000英尺

TAF: VTBD 142300Z 1500/1606 06008KT 9000 FEW020 SCT100

超过4000个机场的气象观测和天气预报(METAR&TAF报告)。

可查询的气象台以黄色和红色小点在地图上表示。

将鼠标移到小点上方,可查看气象台名称。

然后点击查看天气观测和预报。

如需切换地图:点击带黑十字的绿色按钮放大地图;点击带横线的绿色按钮缩小地图;或者点击绿色箭头查看邻近地区的地图。


METAR-TAF: